Terminal Aerodrome Forecast
Issued by NWS Tulsa, OK

Home | Current Version | Previous Version | Text Only | Print | Product List | Glossary On
Versions: 1 2 3 4 5 6 7 8 9 10 11 12 13 14 15 16 17
000
FTUS44 KTSA 201100
TAFFSM
TAF
KFSM 201139Z 2012/2112 05003KT 4SM BR SCT003
      TEMPO 2012/2014 2SM BR BKN003
     FM201500 08004KT P6SM SCT030
     FM201800 15006KT P6SM BKN040
     FM210300 12002KT P6SM SCT200
     FM210900 05003KT P6SM SCT150=

USA.gov is the U.S. government's official web portal to all federal, state and local government web resources and services.